createdAt,value
2019-02-14T00:00:29.910Z,67.10
2019-02-14T00:02:37.012Z,40.43
2019-02-14T00:04:44.062Z,43.67
2019-02-14T00:06:51.145Z,62.23
2019-02-14T00:08:58.246Z,63.90
2019-02-14T00:11:05.304Z,39.03
2019-02-14T00:13:12.498Z,73.30
2019-02-14T00:15:19.516Z,52.97
2019-02-14T00:17:26.727Z,101.87
2019-02-14T00:19:33.762Z,50.37
2019-02-14T00:21:40.824Z,61.87
2019-02-14T00:23:47.905Z,31.40
2019-02-14T00:25:54.983Z,39.97
2019-02-14T00:28:02.083Z,37.17
2019-02-14T00:30:09.238Z,34.87
2019-02-14T00:32:16.307Z,45.13
2019-02-14T00:34:23.352Z,42.83
2019-02-14T00:36:30.475Z,38.13
2019-02-14T00:38:37.566Z,35.97
2019-02-14T00:40:44.523Z,39.27
2019-02-14T00:42:51.604Z,33.93
2019-02-14T00:44:58.659Z,30.03
2019-02-14T00:47:06.270Z,34.43
2019-02-14T00:49:13.639Z,36.93
2019-02-14T00:51:21.070Z,39.17
2019-02-14T00:53:28.461Z,27.20
2019-02-14T00:55:35.578Z,30.03
2019-02-14T00:57:43.064Z,35.27
2019-02-14T00:59:50.473Z,32.53
2019-02-14T01:01:57.882Z,29.23
2019-02-14T01:04:05.264Z,35.43
2019-02-14T01:06:12.739Z,38.47
2019-02-14T01:08:20.376Z,28.60
2019-02-14T01:10:28.096Z,38.57
2019-02-14T01:12:35.550Z,43.77
2019-02-14T01:14:43.083Z,31.70
2019-02-14T01:16:50.428Z,29.53
2019-02-14T01:18:57.909Z,35.17
2019-02-14T01:21:05.508Z,30.67
2019-02-14T01:23:13.004Z,33.60
2019-02-14T01:25:20.519Z,42.50
2019-02-14T01:27:28.277Z,40.93
2019-02-14T01:29:35.973Z,41.33
2019-02-14T01:31:43.703Z,75.93
2019-02-14T01:33:51.211Z,176.33
2019-02-14T01:35:58.775Z,152.60
2019-02-14T01:38:06.628Z,69.57
2019-02-14T01:40:14.495Z,64.00
2019-02-14T01:42:22.154Z,46.33
2019-02-14T01:44:29.958Z,43.27
2019-02-14T01:46:37.403Z,36.10
2019-02-14T01:48:44.826Z,36.43
2019-02-14T01:50:52.303Z,29.67
2019-02-14T01:52:59.683Z,35.73
2019-02-14T01:55:07.109Z,35.07
2019-02-14T01:57:14.577Z,36.23
2019-02-14T01:59:22.047Z,30.00
2019-02-14T02:01:29.472Z,34.47
2019-02-14T02:03:36.858Z,40.23
2019-02-14T02:05:50.590Z,49.87
2019-02-14T02:07:53.574Z,31.33
2019-02-14T02:10:00.714Z,36.10
2019-02-14T02:12:07.747Z,33.30
2019-02-14T02:14:14.888Z,32.47
2019-02-14T02:16:21.892Z,30.80
2019-02-14T02:18:29.600Z,32.27
2019-02-14T02:20:36.650Z,32.77
2019-02-14T02:22:43.609Z,35.87
2019-02-14T02:24:50.731Z,34.23
2019-02-14T02:26:57.804Z,31.23
2019-02-14T02:29:04.848Z,30.70
2019-02-14T02:31:11.874Z,27.37
2019-02-14T02:33:18.969Z,28.67
2019-02-14T02:35:25.904Z,32.87
2019-02-14T02:37:33.109Z,24.00
2019-02-14T02:39:40.058Z,28.23
2019-02-14T02:41:47.502Z,29.20
2019-02-14T02:43:54.922Z,37.50
2019-02-14T02:46:02.002Z,30.83
2019-02-14T02:48:09.032Z,31.37
2019-02-14T02:50:16.066Z,26.97
2019-02-14T02:52:23.218Z,26.47
2019-02-14T02:54:30.211Z,30.83
2019-02-14T02:56:37.343Z,31.07
2019-02-14T02:58:44.422Z,33.43
2019-02-14T03:00:51.435Z,28.87
2019-02-14T03:02:58.484Z,29.40
2019-02-14T03:05:06.198Z,27.30
2019-02-14T03:07:13.629Z,29.20
2019-02-14T03:09:20.706Z,29.83
2019-02-14T03:11:27.753Z,28.33
2019-02-14T03:13:35.193Z,29.17
2019-02-14T03:15:42.230Z,26.33
2019-02-14T03:17:49.199Z,34.80
2019-02-14T03:19:56.259Z,33.63
2019-02-14T03:22:03.677Z,26.97
2019-02-14T03:24:11.046Z,24.07
2019-02-14T03:26:18.590Z,27.77
2019-02-14T03:28:26.012Z,28.20
2019-02-14T03:30:33.482Z,24.30
2019-02-14T03:32:40.916Z,21.37
2019-02-14T03:34:48.252Z,29.23
2019-02-14T03:36:55.752Z,27.13
2019-02-14T03:39:04.016Z,28.53
2019-02-14T03:41:11.511Z,25.07
2019-02-14T03:43:19.093Z,27.93
2019-02-14T03:45:26.688Z,27.63
2019-02-14T03:47:33.844Z,21.47
2019-02-14T03:49:41.028Z,27.83
2019-02-14T03:51:48.089Z,32.13
2019-02-14T03:53:55.151Z,22.10
2019-02-14T03:56:02.574Z,25.70
2019-02-14T03:58:10.087Z,30.87
2019-02-14T04:00:17.624Z,25.73
2019-02-14T04:02:25.014Z,25.37
2019-02-14T04:04:32.425Z,25.37
2019-02-14T04:06:39.788Z,23.57
2019-02-14T04:08:46.738Z,24.47
2019-02-14T04:10:54.424Z,25.57
2019-02-14T04:13:01.823Z,23.90
2019-02-14T04:15:11.817Z,31.20
2019-02-14T04:17:19.231Z,37.97
2019-02-14T04:19:26.692Z,33.97
2019-02-14T04:21:34.389Z,26.83
2019-02-14T04:23:43.110Z,30.97
2019-02-14T04:25:50.508Z,30.47
2019-02-14T04:27:58.024Z,21.03
2019-02-14T04:30:07.495Z,28.77
2019-02-14T04:32:14.871Z,22.80
2019-02-14T04:34:22.215Z,29.13
2019-02-14T04:36:35.900Z,35.57
2019-02-14T04:38:38.273Z,27.57
2019-02-14T04:40:45.543Z,25.70
2019-02-14T04:42:53.038Z,21.57
2019-02-14T04:45:00.474Z,26.30
2019-02-14T04:47:07.651Z,30.40
2019-02-14T04:49:15.071Z,30.67
2019-02-14T04:51:22.491Z,45.23
2019-02-14T04:53:29.975Z,44.37
2019-02-14T04:55:39.105Z,39.47
2019-02-14T04:57:46.573Z,29.93
2019-02-14T04:59:54.095Z,33.13
2019-02-14T05:02:01.581Z,29.27
2019-02-14T05:04:08.853Z,29.30
2019-02-14T05:06:15.959Z,21.50
2019-02-14T05:08:23.037Z,24.50
2019-02-14T05:10:30.034Z,25.50
2019-02-14T05:12:37.515Z,29.70
2019-02-14T05:14:45.020Z,23.77
2019-02-14T05:16:52.402Z,23.60
2019-02-14T05:18:59.585Z,20.13
2019-02-14T05:21:06.960Z,19.40
2019-02-14T05:23:14.379Z,22.67
2019-02-14T05:25:21.716Z,19.47
2019-02-14T05:27:29.135Z,21.50
2019-02-14T05:29:36.158Z,55.97
2019-02-14T05:31:43.263Z,28.00
2019-02-14T05:33:50.190Z,39.57
2019-02-14T05:35:57.220Z,25.87
2019-02-14T05:38:04.331Z,28.53
2019-02-14T05:40:12.484Z,22.73
2019-02-14T05:42:19.623Z,50.10
2019-02-14T05:44:26.708Z,55.23
2019-02-14T05:46:33.794Z,41.10
2019-02-14T05:48:40.783Z,26.83
2019-02-14T05:50:47.869Z,29.40
2019-02-14T05:52:55.147Z,22.70
2019-02-14T05:55:02.515Z,25.00
2019-02-14T05:57:09.982Z,26.10
2019-02-14T05:59:17.011Z,20.57
2019-02-14T06:01:24.812Z,14.33
2019-02-14T06:03:31.933Z,18.47
2019-02-14T06:05:39.394Z,20.20
2019-02-14T06:07:46.967Z,20.80
2019-02-14T06:09:54.463Z,18.00
2019-02-14T06:12:01.992Z,21.27
2019-02-14T06:14:09.469Z,18.83
2019-02-14T06:16:16.858Z,19.63
2019-02-14T06:18:24.311Z,24.30
2019-02-14T06:20:31.752Z,20.77
2019-02-14T06:22:39.006Z,17.57
2019-02-14T06:24:46.457Z,19.63
2019-02-14T06:26:53.901Z,17.87
2019-02-14T06:29:01.472Z,25.40
2019-02-14T06:31:08.904Z,21.13
2019-02-14T06:33:16.301Z,21.13
2019-02-14T06:35:23.741Z,23.07
2019-02-14T06:37:31.018Z,20.50
2019-02-14T06:39:38.478Z,30.27
2019-02-14T06:41:45.972Z,54.93
2019-02-14T06:43:53.415Z,26.17
2019-02-14T06:46:00.846Z,16.37
2019-02-14T06:48:08.693Z,19.90
2019-02-14T06:50:16.026Z,28.63
2019-02-14T06:52:23.420Z,18.90
2019-02-14T06:54:30.963Z,93.67
2019-02-14T06:56:38.426Z,81.30
2019-02-14T06:58:45.891Z,40.97
2019-02-14T07:00:53.457Z,26.13
2019-02-14T07:03:00.952Z,24.80
2019-02-14T07:05:08.994Z,22.33
2019-02-14T07:07:18.556Z,25.93
2019-02-14T07:09:25.617Z,34.30
2019-02-14T07:11:33.029Z,19.00
2019-02-14T07:13:40.487Z,24.53
2019-02-14T07:15:47.908Z,40.13
2019-02-14T07:17:55.251Z,51.70
2019-02-14T07:20:02.635Z,32.70
2019-02-14T07:22:10.127Z,25.57
2019-02-14T07:24:17.587Z,52.30
2019-02-14T07:26:24.999Z,50.13
2019-02-14T07:28:34.355Z,22.27
2019-02-14T07:30:41.683Z,20.73
2019-02-14T07:32:49.014Z,26.90
2019-02-14T07:34:57.023Z,54.97
2019-02-14T07:37:04.486Z,63.83
2019-02-14T07:39:11.989Z,43.13
2019-02-14T07:41:19.782Z,26.20
2019-02-14T07:43:28.181Z,34.00
2019-02-14T07:45:35.630Z,42.90
2019-02-14T07:47:43.146Z,56.73
2019-02-14T07:49:50.589Z,34.63
2019-02-14T07:51:57.945Z,42.47
2019-02-14T07:54:05.448Z,29.70
2019-02-14T07:56:12.987Z,27.70
2019-02-14T07:58:20.342Z,96.37
2019-02-14T08:00:27.689Z,77.63
2019-02-14T08:02:35.175Z,76.83
2019-02-14T08:04:42.665Z,17.67
2019-02-14T08:06:50.124Z,25.43
2019-02-14T08:08:57.635Z,43.40
2019-02-14T08:11:04.979Z,37.63
2019-02-14T08:13:12.469Z,38.97
2019-02-14T08:15:19.877Z,30.87
2019-02-14T08:17:27.999Z,40.20
2019-02-14T08:19:35.447Z,87.47
2019-02-14T08:21:42.971Z,79.83
2019-02-14T08:23:50.519Z,61.60
2019-02-14T08:25:58.013Z,75.87
2019-02-14T08:28:05.544Z,53.17
2019-02-14T08:30:15.231Z,45.27
2019-02-14T08:32:22.641Z,126.47
2019-02-14T08:34:30.084Z,70.20
2019-02-14T08:36:37.472Z,38.97
2019-02-14T08:38:44.990Z,36.43
2019-02-14T08:40:52.445Z,41.03
2019-02-14T08:43:00.260Z,35.07
2019-02-14T08:45:09.191Z,28.67
2019-02-14T08:47:16.609Z,25.97
2019-02-14T08:49:23.995Z,19.73
2019-02-14T08:51:32.645Z,31.73
2019-02-14T08:53:40.234Z,23.23
2019-02-14T08:55:47.662Z,26.17
2019-02-14T08:57:55.271Z,34.10
2019-02-14T09:00:02.687Z,20.23
2019-02-14T09:02:10.271Z,17.10
2019-02-14T09:04:17.820Z,19.60
2019-02-14T09:06:25.340Z,24.90
2019-02-14T09:08:32.795Z,23.67
2019-02-14T09:10:40.175Z,17.27
2019-02-14T09:12:47.580Z,20.83
2019-02-14T09:14:54.977Z,18.63
2019-02-14T09:17:02.405Z,24.60
2019-02-14T09:19:09.814Z,23.03
2019-02-14T09:21:17.401Z,18.93
2019-02-14T09:23:24.896Z,21.27
2019-02-14T09:25:32.432Z,19.87
2019-02-14T09:27:40.032Z,15.43
2019-02-14T09:29:47.989Z,16.07
2019-02-14T09:31:55.420Z,21.67
2019-02-14T09:34:02.524Z,18.20
2019-02-14T09:36:09.872Z,17.90
2019-02-14T09:38:17.749Z,14.87
2019-02-14T09:40:25.202Z,18.87
2019-02-14T09:42:32.628Z,17.17
2019-02-14T09:44:40.146Z,19.77
2019-02-14T09:46:47.711Z,20.30
2019-02-14T09:48:55.114Z,19.30
2019-02-14T09:51:02.615Z,23.87
2019-02-14T09:53:10.022Z,15.17
2019-02-14T09:55:17.424Z,20.70
2019-02-14T09:57:24.727Z,18.97
2019-02-14T09:59:32.320Z,18.37
2019-02-14T10:01:39.676Z,25.93
2019-02-14T10:03:47.150Z,20.43
2019-02-14T10:05:54.483Z,21.20
2019-02-14T10:08:01.865Z,26.53
2019-02-14T10:10:12.514Z,24.10
2019-02-14T10:12:19.908Z,29.13
2019-02-14T10:14:27.416Z,37.77
2019-02-14T10:16:34.753Z,16.57
2019-02-14T10:18:42.281Z,18.27
2019-02-14T10:20:49.649Z,23.77
2019-02-14T10:22:57.171Z,17.27
2019-02-14T10:25:04.872Z,23.53
2019-02-14T10:27:12.288Z,18.00
2019-02-14T10:29:19.746Z,18.27
2019-02-14T10:31:27.254Z,22.73
2019-02-14T10:33:34.705Z,15.77
2019-02-14T10:35:42.172Z,20.40
2019-02-14T10:37:50.234Z,19.90
2019-02-14T10:39:58.149Z,15.70
2019-02-14T10:42:06.061Z,18.20
2019-02-14T10:44:14.308Z,17.47
2019-02-14T10:46:21.946Z,33.80
2019-02-14T10:48:29.332Z,29.93
2019-02-14T10:50:37.077Z,17.77
2019-02-14T10:52:44.707Z,19.63
2019-02-14T10:54:52.149Z,25.10
2019-02-14T10:56:59.625Z,15.43
2019-02-14T10:59:07.206Z,13.23
2019-02-14T11:01:14.607Z,14.40
2019-02-14T11:03:22.377Z,17.93
2019-02-14T11:05:29.874Z,19.23
2019-02-14T11:07:37.324Z,17.90
2019-02-14T11:09:44.803Z,16.10
2019-02-14T11:11:52.119Z,21.93
2019-02-14T11:13:59.493Z,15.37
2019-02-14T11:16:09.614Z,20.03
2019-02-14T11:18:16.766Z,33.97
2019-02-14T11:20:24.139Z,24.07
2019-02-14T11:22:31.755Z,24.50
2019-02-14T11:24:39.265Z,25.97
2019-02-14T11:26:46.789Z,15.10
2019-02-14T11:28:54.396Z,18.57
2019-02-14T11:31:01.730Z,17.73
2019-02-14T11:33:09.374Z,18.97
2019-02-14T11:35:16.762Z,18.57
2019-02-14T11:37:25.777Z,24.77
2019-02-14T11:39:33.302Z,17.90
2019-02-14T11:41:40.537Z,15.80
2019-02-14T11:43:47.961Z,17.70
2019-02-14T11:45:55.434Z,23.37
2019-02-14T11:48:02.884Z,21.83
2019-02-14T11:50:11.720Z,25.20
2019-02-14T11:52:19.410Z,23.30
2019-02-14T11:54:26.871Z,33.77
2019-02-14T11:56:34.354Z,27.23
2019-02-14T11:58:41.517Z,22.03
2019-02-14T12:00:48.920Z,24.30
2019-02-14T12:02:56.662Z,26.57
2019-02-14T12:05:04.232Z,20.17
2019-02-14T12:07:11.623Z,23.17
2019-02-14T12:09:19.272Z,14.00
2019-02-14T12:11:26.924Z,15.17
2019-02-14T12:13:35.044Z,18.07
2019-02-14T12:15:42.552Z,11.77
2019-02-14T12:17:49.935Z,16.33
2019-02-14T12:19:57.454Z,14.17
2019-02-14T12:22:05.524Z,16.50
2019-02-14T12:24:13.567Z,19.87
2019-02-14T12:26:21.612Z,13.60
2019-02-14T12:28:29.590Z,16.03
2019-02-14T12:30:36.882Z,14.27
2019-02-14T12:32:44.641Z,15.63
2019-02-14T12:34:52.563Z,22.93
2019-02-14T12:37:03.194Z,19.70
2019-02-14T12:39:11.655Z,15.13
2019-02-14T12:41:19.338Z,12.33
2019-02-14T12:43:26.608Z,18.53
2019-02-14T12:45:34.282Z,13.67
2019-02-14T12:47:42.026Z,13.83
2019-02-14T12:49:49.501Z,19.20
2019-02-14T12:51:57.069Z,16.73
2019-02-14T12:54:04.513Z,14.80
2019-02-14T12:56:12.173Z,15.90
2019-02-14T12:58:19.704Z,20.13
2019-02-14T13:00:27.258Z,12.80
2019-02-14T13:02:34.697Z,12.73
2019-02-14T13:04:42.227Z,17.70
2019-02-14T13:06:49.910Z,15.97
2019-02-14T13:08:57.724Z,16.93
2019-02-14T13:11:05.334Z,13.23
2019-02-14T13:13:13.239Z,15.43
2019-02-14T13:15:22.303Z,14.07
2019-02-14T13:17:29.758Z,14.37
2019-02-14T13:19:37.170Z,19.20
2019-02-14T13:21:44.713Z,14.27
2019-02-14T13:23:52.554Z,13.90
2019-02-14T13:25:59.960Z,12.77
2019-02-14T13:28:07.585Z,18.43
2019-02-14T13:30:21.044Z,27.10
2019-02-14T13:32:28.553Z,16.30
2019-02-14T13:34:36.106Z,21.10
2019-02-14T13:36:43.620Z,13.17
2019-02-14T13:38:51.336Z,18.87
2019-02-14T13:40:58.794Z,29.83
2019-02-14T13:43:06.860Z,35.20
2019-02-14T13:45:16.362Z,20.07
2019-02-14T13:47:23.824Z,19.87
2019-02-14T13:49:32.796Z,37.43
2019-02-14T13:51:40.320Z,20.23
2019-02-14T13:53:47.748Z,19.87
2019-02-14T13:55:55.269Z,32.67
2019-02-14T13:58:02.794Z,40.60
2019-02-14T14:00:15.844Z,35.77
2019-02-14T14:02:23.309Z,35.73
2019-02-14T14:04:30.723Z,58.03
2019-02-14T14:06:38.237Z,81.00
2019-02-14T14:08:45.743Z,64.70
2019-02-14T14:10:53.123Z,30.73
2019-02-14T14:13:00.547Z,42.43
2019-02-14T14:15:08.725Z,58.30
2019-02-14T14:17:16.262Z,72.23
2019-02-14T14:19:23.661Z,30.93
2019-02-14T14:21:31.114Z,19.23
2019-02-14T14:23:38.603Z,31.17
2019-02-14T14:25:46.048Z,50.10
2019-02-14T14:27:53.447Z,44.53
2019-02-14T14:30:00.903Z,24.33
2019-02-14T14:32:08.319Z,46.10
2019-02-14T14:34:15.645Z,54.47
2019-02-14T14:36:23.066Z,27.13
2019-02-14T14:38:30.456Z,20.23
2019-02-14T14:40:37.919Z,22.27
2019-02-14T14:43:05.341Z,19.70
2019-02-14T14:45:15.311Z,21.87
2019-02-14T14:47:24.438Z,27.10
2019-02-14T14:49:31.781Z,28.53
2019-02-14T14:51:39.209Z,16.00
2019-02-14T14:53:46.677Z,22.33
2019-02-14T14:55:54.193Z,23.20
2019-02-14T14:58:01.663Z,22.67
2019-02-14T15:00:09.763Z,28.47
2019-02-14T15:02:17.281Z,37.00
2019-02-14T15:04:25.497Z,46.23
2019-02-14T15:06:32.936Z,54.57
2019-02-14T15:08:40.425Z,30.30
2019-02-14T15:10:50.536Z,35.03
2019-02-14T15:12:57.957Z,44.37
2019-02-14T15:15:08.312Z,28.53
2019-02-14T15:17:18.888Z,32.47
2019-02-14T15:19:26.309Z,31.37
2019-02-14T15:21:37.749Z,22.67
2019-02-14T15:23:46.413Z,24.30
2019-02-14T15:25:56.876Z,20.30
2019-02-14T15:28:04.418Z,19.97
2019-02-14T15:30:11.817Z,31.93
2019-02-14T15:32:19.826Z,37.00
2019-02-14T15:34:31.844Z,42.67
2019-02-14T15:36:40.571Z,31.80
2019-02-14T15:38:50.351Z,31.07
2019-02-14T15:41:01.340Z,26.37
2019-02-14T15:43:10.829Z,29.07
2019-02-14T15:45:39.936Z,30.73
2019-02-14T15:47:50.515Z,30.47
2019-02-14T15:49:58.391Z,36.87
2019-02-14T15:52:07.759Z,31.23
2019-02-14T15:54:21.011Z,31.33
2019-02-14T15:56:31.592Z,29.30
2019-02-14T15:58:42.045Z,33.87
2019-02-14T16:00:51.672Z,35.20
2019-02-14T16:03:03.808Z,35.00
2019-02-14T16:05:12.588Z,43.33
2019-02-14T16:07:22.101Z,32.77
2019-02-14T16:09:29.857Z,34.03
2019-02-14T16:11:39.168Z,33.33
2019-02-14T16:13:48.030Z,29.70
2019-02-14T16:15:58.791Z,36.80
2019-02-14T16:18:06.914Z,36.67
2019-02-14T16:20:15.775Z,40.07
2019-02-14T16:22:30.001Z,40.27
2019-02-14T16:24:34.531Z,40.23
2019-02-14T16:26:42.827Z,46.37
2019-02-14T16:28:50.551Z,53.00
2019-02-14T16:30:58.433Z,74.37
2019-02-14T16:33:06.383Z,67.77
2019-02-14T16:35:14.296Z,65.37
2019-02-14T16:37:21.936Z,59.70
2019-02-14T16:39:31.109Z,69.40
2019-02-14T16:41:39.051Z,69.17
2019-02-14T16:43:46.788Z,78.37
2019-02-14T16:45:54.430Z,66.17
2019-02-14T16:48:02.169Z,60.53
2019-02-14T16:50:10.500Z,77.13
2019-02-14T16:52:18.147Z,77.37
2019-02-14T16:54:25.874Z,72.10
2019-02-14T16:56:33.263Z,110.93
2019-02-14T16:58:41.163Z,93.73
2019-02-14T17:00:48.928Z,85.60
2019-02-14T17:02:56.682Z,77.77
2019-02-14T17:05:04.610Z,82.43
2019-02-14T17:07:12.430Z,79.27
2019-02-14T17:09:20.011Z,69.93
2019-02-14T17:11:27.758Z,67.83
2019-02-14T17:13:35.234Z,57.93
2019-02-14T17:15:42.813Z,56.93
2019-02-14T17:17:50.525Z,56.10
2019-02-14T17:19:58.078Z,60.90
2019-02-14T17:22:05.675Z,59.93
2019-02-14T17:24:13.566Z,53.80
2019-02-14T17:26:21.437Z,58.97
2019-02-14T17:28:29.003Z,53.10
2019-02-14T17:30:36.838Z,60.87
2019-02-14T17:32:44.560Z,66.27
2019-02-14T17:34:52.033Z,70.53
2019-02-14T17:36:59.668Z,54.40
2019-02-14T17:39:07.832Z,51.73
2019-02-14T17:41:15.371Z,54.73
2019-02-14T17:43:23.192Z,50.30
2019-02-14T17:45:31.010Z,55.17
2019-02-14T17:47:38.467Z,84.83
2019-02-14T17:49:46.151Z,108.23
2019-02-14T17:51:53.771Z,96.33
2019-02-14T17:54:01.804Z,84.47
2019-02-14T17:56:09.439Z,102.97
2019-02-14T17:58:17.281Z,93.73
2019-02-14T18:00:24.898Z,114.70
2019-02-14T18:02:32.298Z,108.13
2019-02-14T18:04:39.955Z,107.17
2019-02-14T18:06:47.780Z,83.00
2019-02-14T18:08:55.568Z,60.63
2019-02-14T18:11:03.009Z,54.53
2019-02-14T18:13:10.603Z,41.97
2019-02-14T18:15:18.241Z,41.13
2019-02-14T18:17:25.947Z,47.30
2019-02-14T18:19:33.612Z,41.73
2019-02-14T18:21:41.238Z,32.53
2019-02-14T18:23:49.101Z,34.90
2019-02-14T18:25:56.850Z,30.33
2019-02-14T18:28:04.567Z,32.97
2019-02-14T18:30:12.843Z,29.27
2019-02-14T18:32:20.610Z,32.77
2019-02-14T18:34:28.568Z,29.13
2019-02-14T18:36:37.462Z,31.53
2019-02-14T18:38:45.149Z,28.07
2019-02-14T18:40:52.970Z,29.77
2019-02-14T18:43:00.588Z,28.30
2019-02-14T18:45:11.486Z,26.33
2019-02-14T18:47:19.544Z,25.47
2019-02-14T18:49:27.188Z,26.93
2019-02-14T18:51:35.053Z,32.17
2019-02-14T18:53:42.515Z,125.03
2019-02-14T18:55:50.263Z,418.90
2019-02-14T18:57:57.732Z,410.07
2019-02-14T19:00:06.688Z,125.13
2019-02-14T19:02:14.319Z,57.70
2019-02-14T19:04:21.750Z,52.60
2019-02-14T19:06:29.340Z,36.63
2019-02-14T19:08:37.421Z,31.30
2019-02-14T19:10:45.170Z,39.80
2019-02-14T19:12:52.842Z,89.73
2019-02-14T19:15:00.579Z,45.03
2019-02-14T19:17:08.167Z,33.80
2019-02-14T19:19:15.894Z,34.30
2019-02-14T19:21:23.491Z,32.40
2019-02-14T19:23:31.153Z,54.87
2019-02-14T19:25:38.802Z,52.87
2019-02-14T19:27:46.764Z,40.90
2019-02-14T19:29:54.781Z,39.63
2019-02-14T19:32:03.125Z,36.10
2019-02-14T19:34:11.035Z,42.87
2019-02-14T19:36:18.930Z,35.67
2019-02-14T19:38:26.482Z,38.87
2019-02-14T19:40:34.939Z,38.07
2019-02-14T19:42:42.819Z,39.03
2019-02-14T19:44:50.686Z,39.10
2019-02-14T19:47:17.764Z,39.93
2019-02-14T19:49:25.428Z,35.37
2019-02-14T19:51:32.948Z,35.67
2019-02-14T19:53:40.626Z,29.13
2019-02-14T19:55:48.187Z,30.30
2019-02-14T19:57:55.769Z,32.57
2019-02-14T20:00:03.627Z,34.77
2019-02-14T20:02:11.462Z,32.10
2019-02-14T20:04:20.269Z,31.73
2019-02-14T20:06:27.917Z,31.03
2019-02-14T20:08:36.142Z,35.10
2019-02-14T20:10:45.556Z,33.80
2019-02-14T20:12:54.665Z,41.70
2019-02-14T20:15:03.045Z,43.00
2019-02-14T20:17:11.169Z,45.70
2019-02-14T20:19:19.980Z,42.40
2019-02-14T20:21:28.424Z,38.13
2019-02-14T20:23:39.723Z,45.23
2019-02-14T20:25:48.743Z,44.87
2019-02-14T20:27:56.850Z,51.10
2019-02-14T20:30:05.305Z,48.60
2019-02-14T20:32:13.303Z,54.13
2019-02-14T20:34:21.019Z,55.07
2019-02-14T20:36:29.180Z,53.53
2019-02-14T20:38:36.835Z,64.93
2019-02-14T20:40:44.622Z,82.23
2019-02-14T20:42:52.303Z,94.97
2019-02-14T20:44:59.825Z,84.93
2019-02-14T20:47:07.705Z,105.93
2019-02-14T20:49:16.272Z,77.30
2019-02-14T20:51:24.173Z,61.37
2019-02-14T20:53:31.635Z,65.53
2019-02-14T20:55:39.693Z,62.33
2019-02-14T20:57:47.659Z,60.40
2019-02-14T20:59:55.504Z,78.87
2019-02-14T21:02:02.926Z,99.73
2019-02-14T21:04:10.345Z,96.33
2019-02-14T21:06:18.063Z,90.07
2019-02-14T21:08:25.651Z,72.83
2019-02-14T21:10:33.430Z,62.07
2019-02-14T21:12:41.012Z,62.13
2019-02-14T21:14:48.635Z,60.37
2019-02-14T21:16:56.366Z,54.57
2019-02-14T21:19:04.008Z,58.90
2019-02-14T21:21:12.041Z,59.60
2019-02-14T21:23:20.189Z,59.07
2019-02-14T21:25:28.120Z,53.80
2019-02-14T21:27:35.708Z,58.07
2019-02-14T21:29:43.505Z,59.03
2019-02-14T21:31:50.945Z,70.57
2019-02-14T21:33:58.492Z,61.47
2019-02-14T21:36:06.247Z,70.83
2019-02-14T21:38:13.840Z,99.30
2019-02-14T21:40:21.185Z,93.80
2019-02-14T21:42:29.867Z,99.77
2019-02-14T21:44:37.815Z,102.13
2019-02-14T21:46:45.471Z,116.23
2019-02-14T21:48:53.360Z,100.77
2019-02-14T21:51:01.176Z,112.60
2019-02-14T21:53:09.199Z,98.23
2019-02-14T21:55:17.453Z,84.30
2019-02-14T21:57:25.408Z,79.60
2019-02-14T21:59:33.585Z,75.73
2019-02-14T22:01:41.384Z,78.80
2019-02-14T22:03:49.429Z,85.17
2019-02-14T22:05:57.143Z,71.17
2019-02-14T22:08:05.016Z,66.97
2019-02-14T22:10:13.182Z,57.53
2019-02-14T22:12:39.158Z,83.00
2019-02-14T22:14:30.306Z,106.80
2019-02-14T22:16:37.809Z,138.30
2019-02-14T22:18:45.328Z,344.77
2019-02-14T22:20:52.874Z,295.20
2019-02-14T22:23:00.251Z,224.63
2019-02-14T22:25:08.471Z,280.83
2019-02-14T22:27:15.970Z,245.80
2019-02-14T22:29:24.598Z,223.67
2019-02-14T22:31:32.135Z,223.17
2019-02-14T22:33:39.744Z,118.03
2019-02-14T22:35:47.178Z,104.37
2019-02-14T22:37:54.630Z,81.17
2019-02-14T22:40:02.188Z,81.57
2019-02-14T22:42:09.771Z,72.70
2019-02-14T22:44:17.275Z,67.73
2019-02-14T22:46:24.909Z,70.13
2019-02-14T22:48:32.359Z,76.10
2019-02-14T22:50:39.932Z,79.37
2019-02-14T22:52:47.900Z,79.03
2019-02-14T22:54:55.498Z,71.13
2019-02-14T22:57:03.248Z,81.77
2019-02-14T22:59:10.704Z,74.23
2019-02-14T23:01:18.093Z,72.07
2019-02-14T23:03:25.671Z,60.43
2019-02-14T23:05:32.985Z,65.37
2019-02-14T23:07:40.352Z,61.27
2019-02-14T23:09:48.246Z,67.77
2019-02-14T23:11:55.779Z,65.37
2019-02-14T23:14:03.159Z,69.80
2019-02-14T23:16:10.687Z,71.53
2019-02-14T23:18:18.108Z,86.07
2019-02-14T23:20:25.374Z,121.43
2019-02-14T23:22:32.766Z,113.97
2019-02-14T23:24:40.264Z,185.30
2019-02-14T23:26:47.712Z,145.50
2019-02-14T23:28:55.151Z,139.53
2019-02-14T23:31:02.524Z,127.03
2019-02-14T23:33:10.202Z,164.77
2019-02-14T23:35:17.876Z,124.80
2019-02-14T23:37:25.586Z,133.73
2019-02-14T23:39:33.289Z,142.20
2019-02-14T23:41:40.969Z,148.27
2019-02-14T23:43:48.764Z,142.17
2019-02-14T23:45:56.765Z,131.97
2019-02-14T23:48:04.564Z,104.97
2019-02-14T23:50:12.419Z,103.23
2019-02-14T23:52:20.128Z,95.13
2019-02-14T23:54:27.823Z,88.23
2019-02-14T23:56:35.635Z,88.70
2019-02-14T23:58:43.461Z,84.93
